sensor_id;sensor_type;location;lat;lon;timestamp;P1;durP1;ratioP1;P2;durP2;ratioP2
35917;SDS011;22011;59.912;30.300;2024-01-11T00:01:01;1.20;;;0.40;;
35917;SDS011;22011;59.912;30.300;2024-01-11T00:03:28;1.00;;;0.30;;
35917;SDS011;22011;59.912;30.300;2024-01-11T00:05:57;1.55;;;0.45;;
35917;SDS011;22011;59.912;30.300;2024-01-11T00:08:27;0.82;;;0.30;;
35917;SDS011;22011;59.912;30.300;2024-01-11T00:10:55;0.50;;;0.20;;
35917;SDS011;22011;59.912;30.300;2024-01-11T00:13:22;0.40;;;0.40;;
35917;SDS011;22011;59.912;30.300;2024-01-11T00:15:50;1.15;;;0.30;;
35917;SDS011;22011;59.912;30.300;2024-01-11T00:18:18;0.93;;;0.30;;
35917;SDS011;22011;59.912;30.300;2024-01-11T00:20:46;0.60;;;0.35;;
35917;SDS011;22011;59.912;30.300;2024-01-11T00:23:15;0.30;;;0.10;;
35917;SDS011;22011;59.912;30.300;2024-01-11T00:25:43;0.50;;;0.30;;
35917;SDS011;22011;59.912;30.300;2024-01-11T00:28:10;0.30;;;0.30;;
35917;SDS011;22011;59.912;30.300;2024-01-11T00:30:38;1.00;;;0.35;;
35917;SDS011;22011;59.912;30.300;2024-01-11T00:33:05;0.20;;;0.13;;
35917;SDS011;22011;59.912;30.300;2024-01-11T00:35:35;1.45;;;0.20;;
35917;SDS011;22011;59.912;30.300;2024-01-11T00:38:02;0.10;;;0.10;;
35917;SDS011;22011;59.912;30.300;2024-01-11T00:40:31;0.30;;;0.20;;
35917;SDS011;22011;59.912;30.300;2024-01-11T00:42:59;0.95;;;0.30;;
35917;SDS011;22011;59.912;30.300;2024-01-11T00:45:27;0.40;;;0.20;;
35917;SDS011;22011;59.912;30.300;2024-01-11T00:47:54;0.65;;;0.32;;
35917;SDS011;22011;59.912;30.300;2024-01-11T00:50:22;1.27;;;0.35;;
35917;SDS011;22011;59.912;30.300;2024-01-11T00:52:49;0.80;;;0.20;;
35917;SDS011;22011;59.912;30.300;2024-01-11T00:55:17;0.88;;;0.30;;
35917;SDS011;22011;59.912;30.300;2024-01-11T00:57:46;0.10;;;0.10;;
35917;SDS011;22011;59.912;30.300;2024-01-11T01:00:14;4.65;;;0.38;;
35917;SDS011;22011;59.912;30.300;2024-01-11T01:02:42;0.20;;;0.20;;
35917;SDS011;22011;59.912;30.300;2024-01-11T01:05:10;2.05;;;0.30;;
35917;SDS011;22011;59.912;30.300;2024-01-11T01:07:37;0.63;;;0.30;;
35917;SDS011;22011;59.912;30.300;2024-01-11T01:10:05;0.20;;;0.10;;
35917;SDS011;22011;59.912;30.300;2024-01-11T01:12:34;0.20;;;0.20;;
35917;SDS011;22011;59.912;30.300;2024-01-11T01:15:04;0.10;;;0.10;;
35917;SDS011;22011;59.912;30.300;2024-01-11T01:17:32;0.20;;;0.20;;
35917;SDS011;22011;59.912;30.300;2024-01-11T01:19:59;0.63;;;0.22;;
35917;SDS011;22011;59.912;30.300;2024-01-11T01:22:27;0.30;;;0.30;;
35917;SDS011;22011;59.912;30.300;2024-01-11T01:24:55;0.28;;;0.28;;
35917;SDS011;22011;59.912;30.300;2024-01-11T01:27:22;0.43;;;0.30;;
35917;SDS011;22011;59.912;30.300;2024-01-11T01:29:50;0.13;;;0.10;;
35917;SDS011;22011;59.912;30.300;2024-01-11T01:32:19;0.30;;;0.20;;
35917;SDS011;22011;59.912;30.300;2024-01-11T01:34:47;0.30;;;0.10;;
35917;SDS011;22011;59.912;30.300;2024-01-11T01:37:14;0.40;;;0.10;;
35917;SDS011;22011;59.912;30.300;2024-01-11T01:39:42;0.40;;;0.10;;
35917;SDS011;22011;59.912;30.300;2024-01-11T01:42:09;0.10;;;0.10;;
35917;SDS011;22011;59.912;30.300;2024-01-11T01:44:37;0.10;;;0.10;;
35917;SDS011;22011;59.912;30.300;2024-01-11T01:47:07;1.70;;;0.30;;
35917;SDS011;22011;59.912;30.300;2024-01-11T01:49:37;0.15;;;0.10;;
35917;SDS011;22011;59.912;30.300;2024-01-11T01:52:05;0.45;;;0.40;;
35917;SDS011;22011;59.912;30.300;2024-01-11T01:54:34;0.17;;;0.10;;
35917;SDS011;22011;59.912;30.300;2024-01-11T01:57:02;0.10;;;0.10;;
35917;SDS011;22011;59.912;30.300;2024-01-11T01:59:31;0.10;;;0.10;;
35917;SDS011;22011;59.912;30.300;2024-01-11T02:01:59;0.17;;;0.10;;
35917;SDS011;22011;59.912;30.300;2024-01-11T02:04:27;0.35;;;0.10;;
35917;SDS011;22011;59.912;30.300;2024-01-11T02:06:56;0.77;;;0.20;;
35917;SDS011;22011;59.912;30.300;2024-01-11T02:11:53;0.20;;;0.20;;
35917;SDS011;22011;59.912;30.300;2024-01-11T02:14:21;0.10;;;0.10;;
35917;SDS011;22011;59.912;30.300;2024-01-11T02:16:49;0.17;;;0.10;;
35917;SDS011;22011;59.912;30.300;2024-01-11T02:19:17;0.50;;;0.10;;
35917;SDS011;22011;59.912;30.300;2024-01-11T02:21:46;0.10;;;0.10;;
35917;SDS011;22011;59.912;30.300;2024-01-11T02:24:18;1.45;;;0.10;;
35917;SDS011;22011;59.912;30.300;2024-01-11T02:29:30;0.20;;;0.10;;
35917;SDS011;22011;59.912;30.300;2024-01-11T02:31:59;0.10;;;0.10;;
35917;SDS011;22011;59.912;30.300;2024-01-11T02:34:28;0.57;;;0.03;;
35917;SDS011;22011;59.912;30.300;2024-01-11T02:36:56;0.47;;;0.10;;
35917;SDS011;22011;59.912;30.300;2024-01-11T02:39:25;0.52;;;0.20;;
35917;SDS011;22011;59.912;30.300;2024-01-11T02:41:56;0.20;;;0.00;;
35917;SDS011;22011;59.912;30.300;2024-01-11T02:44:24;0.10;;;0.08;;
35917;SDS011;22011;59.912;30.300;2024-01-11T02:46:52;0.05;;;0.05;;
35917;SDS011;22011;59.912;30.300;2024-01-11T02:49:19;0.10;;;0.10;;
35917;SDS011;22011;59.912;30.300;2024-01-11T02:51:47;0.10;;;0.10;;
35917;SDS011;22011;59.912;30.300;2024-01-11T02:54:14;0.00;;;0.00;;
35917;SDS011;22011;59.912;30.300;2024-01-11T02:56:43;0.00;;;0.00;;
35917;SDS011;22011;59.912;30.300;2024-01-11T02:59:11;0.25;;;0.10;;
35917;SDS011;22011;59.912;30.300;2024-01-11T03:01:38;0.20;;;0.10;;
35917;SDS011;22011;59.912;30.300;2024-01-11T03:04:06;0.00;;;0.00;;
35917;SDS011;22011;59.912;30.300;2024-01-11T03:06:34;0.10;;;0.10;;
35917;SDS011;22011;59.912;30.300;2024-01-11T03:09:01;0.47;;;0.08;;
35917;SDS011;22011;59.912;30.300;2024-01-11T03:11:29;0.17;;;0.17;;
35917;SDS011;22011;59.912;30.300;2024-01-11T03:13:58;0.52;;;0.15;;
35917;SDS011;22011;59.912;30.300;2024-01-11T03:16:26;1.23;;;0.20;;
35917;SDS011;22011;59.912;30.300;2024-01-11T03:18:53;0.47;;;0.10;;
35917;SDS011;22011;59.912;30.300;2024-01-11T03:21:21;0.10;;;0.10;;
35917;SDS011;22011;59.912;30.300;2024-01-11T03:23:48;0.30;;;0.13;;
35917;SDS011;22011;59.912;30.300;2024-01-11T03:26:16;0.30;;;0.17;;
35917;SDS011;22011;59.912;30.300;2024-01-11T03:28:44;0.85;;;0.20;;
35917;SDS011;22011;59.912;30.300;2024-01-11T03:31:13;0.38;;;0.17;;
35917;SDS011;22011;59.912;30.300;2024-01-11T03:33:41;0.20;;;0.10;;
35917;SDS011;22011;59.912;30.300;2024-01-11T03:36:09;0.13;;;0.10;;
35917;SDS011;22011;59.912;30.300;2024-01-11T03:38:37;0.00;;;0.00;;
35917;SDS011;22011;59.912;30.300;2024-01-11T03:41:07;0.90;;;0.20;;
35917;SDS011;22011;59.912;30.300;2024-01-11T03:43:35;0.10;;;0.10;;
35917;SDS011;22011;59.912;30.300;2024-01-11T03:46:03;0.10;;;0.10;;
35917;SDS011;22011;59.912;30.300;2024-01-11T03:48:32;0.17;;;0.17;;
35917;SDS011;22011;59.912;30.300;2024-01-11T03:51:01;0.73;;;0.30;;
35917;SDS011;22011;59.912;30.300;2024-01-11T03:53:29;0.32;;;0.20;;
35917;SDS011;22011;59.912;30.300;2024-01-11T03:55:56;0.10;;;0.10;;
35917;SDS011;22011;59.912;30.300;2024-01-11T03:58:24;0.10;;;0.10;;
35917;SDS011;22011;59.912;30.300;2024-01-11T04:00:52;0.45;;;0.20;;
35917;SDS011;22011;59.912;30.300;2024-01-11T04:03:20;0.30;;;0.20;;
35917;SDS011;22011;59.912;30.300;2024-01-11T04:05:49;0.20;;;0.20;;
35917;SDS011;22011;59.912;30.300;2024-01-11T04:08:16;0.30;;;0.25;;
35917;SDS011;22011;59.912;30.300;2024-01-11T04:10:44;0.10;;;0.10;;
35917;SDS011;22011;59.912;30.300;2024-01-11T04:13:11;0.22;;;0.10;;
35917;SDS011;22011;59.912;30.300;2024-01-11T04:15:39;0.32;;;0.20;;
35917;SDS011;22011;59.912;30.300;2024-01-11T04:18:07;0.08;;;0.08;;
35917;SDS011;22011;59.912;30.300;2024-01-11T04:20:34;0.45;;;0.20;;
35917;SDS011;22011;59.912;30.300;2024-01-11T04:23:03;0.77;;;0.35;;
35917;SDS011;22011;59.912;30.300;2024-01-11T04:25:31;0.40;;;0.10;;
35917;SDS011;22011;59.912;30.300;2024-01-11T04:27:58;0.20;;;0.10;;
35917;SDS011;22011;59.912;30.300;2024-01-11T04:30:26;1.17;;;0.30;;
35917;SDS011;22011;59.912;30.300;2024-01-11T04:32:53;1.10;;;0.28;;
35917;SDS011;22011;59.912;30.300;2024-01-11T04:35:21;0.75;;;0.22;;
35917;SDS011;22011;59.912;30.300;2024-01-11T04:37:48;0.65;;;0.43;;
35917;SDS011;22011;59.912;30.300;2024-01-11T04:40:17;0.43;;;0.20;;
35917;SDS011;22011;59.912;30.300;2024-01-11T04:42:45;0.20;;;0.20;;
35917;SDS011;22011;59.912;30.300;2024-01-11T04:45:12;0.47;;;0.45;;
35917;SDS011;22011;59.912;30.300;2024-01-11T04:47:40;0.30;;;0.30;;
35917;SDS011;22011;59.912;30.300;2024-01-11T04:50:08;0.30;;;0.30;;
35917;SDS011;22011;59.912;30.300;2024-01-11T04:52:36;0.25;;;0.25;;
35917;SDS011;22011;59.912;30.300;2024-01-11T04:55:04;0.30;;;0.30;;
35917;SDS011;22011;59.912;30.300;2024-01-11T04:57:33;0.73;;;0.50;;
35917;SDS011;22011;59.912;30.300;2024-01-11T05:00:01;0.73;;;0.32;;
35917;SDS011;22011;59.912;30.300;2024-01-11T05:02:29;0.45;;;0.40;;
35917;SDS011;22011;59.912;30.300;2024-01-11T05:04:56;0.20;;;0.20;;
35917;SDS011;22011;59.912;30.300;2024-01-11T05:07:24;0.50;;;0.40;;
35917;SDS011;22011;59.912;30.300;2024-01-11T05:09:51;0.50;;;0.50;;
35917;SDS011;22011;59.912;30.300;2024-01-11T05:12:19;1.02;;;0.50;;
35917;SDS011;22011;59.912;30.300;2024-01-11T05:14:48;0.73;;;0.63;;
35917;SDS011;22011;59.912;30.300;2024-01-11T05:17:15;0.55;;;0.55;;
35917;SDS011;22011;59.912;30.300;2024-01-11T05:19:43;0.30;;;0.30;;
35917;SDS011;22011;59.912;30.300;2024-01-11T05:22:11;0.95;;;0.40;;
35917;SDS011;22011;59.912;30.300;2024-01-11T05:24:38;0.50;;;0.50;;
35917;SDS011;22011;59.912;30.300;2024-01-11T05:27:06;0.82;;;0.60;;
35917;SDS011;22011;59.912;30.300;2024-01-11T05:29:33;0.40;;;0.40;;
35917;SDS011;22011;59.912;30.300;2024-01-11T05:32:02;1.95;;;0.60;;
35917;SDS011;22011;59.912;30.300;2024-01-11T05:34:30;0.40;;;0.40;;
35917;SDS011;22011;59.912;30.300;2024-01-11T05:36:58;0.60;;;0.60;;
35917;SDS011;22011;59.912;30.300;2024-01-11T05:39:25;0.80;;;0.80;;
35917;SDS011;22011;59.912;30.300;2024-01-11T05:41:53;4.00;;;1.00;;
35917;SDS011;22011;59.912;30.300;2024-01-11T05:44:20;0.55;;;0.43;;
35917;SDS011;22011;59.912;30.300;2024-01-11T05:46:48;1.38;;;0.90;;
35917;SDS011;22011;59.912;30.300;2024-01-11T05:49:17;1.55;;;0.65;;
35917;SDS011;22011;59.912;30.300;2024-01-11T05:51:44;3.30;;;1.00;;
35917;SDS011;22011;59.912;30.300;2024-01-11T05:54:12;1.15;;;0.80;;
35917;SDS011;22011;59.912;30.300;2024-01-11T05:56:40;4.82;;;0.90;;
35917;SDS011;22011;59.912;30.300;2024-01-11T05:59:07;1.52;;;0.90;;
35917;SDS011;22011;59.912;30.300;2024-01-11T06:01:39;1.55;;;0.85;;
35917;SDS011;22011;59.912;30.300;2024-01-11T06:04:07;2.83;;;0.80;;
35917;SDS011;22011;59.912;30.300;2024-01-11T06:06:36;4.00;;;0.60;;
35917;SDS011;22011;59.912;30.300;2024-01-11T06:09:04;2.63;;;0.70;;
35917;SDS011;22011;59.912;30.300;2024-01-11T06:11:32;2.33;;;1.77;;
35917;SDS011;22011;59.912;30.300;2024-01-11T06:13:59;1.38;;;0.63;;
35917;SDS011;22011;59.912;30.300;2024-01-11T06:16:28;0.60;;;0.60;;
35917;SDS011;22011;59.912;30.300;2024-01-11T06:18:56;1.40;;;0.73;;
35917;SDS011;22011;59.912;30.300;2024-01-11T06:21:24;1.95;;;0.70;;
35917;SDS011;22011;59.912;30.300;2024-01-11T06:23:53;2.80;;;0.63;;
35917;SDS011;22011;59.912;30.300;2024-01-11T06:26:20;0.77;;;0.50;;
35917;SDS011;22011;59.912;30.300;2024-01-11T06:28:49;3.63;;;0.77;;
35917;SDS011;22011;59.912;30.300;2024-01-11T06:31:16;1.75;;;0.50;;
35917;SDS011;22011;59.912;30.300;2024-01-11T06:33:44;1.23;;;0.40;;
35917;SDS011;22011;59.912;30.300;2024-01-11T06:36:11;1.60;;;0.60;;
35917;SDS011;22011;59.912;30.300;2024-01-11T06:38:39;0.90;;;0.60;;
35917;SDS011;22011;59.912;30.300;2024-01-11T06:41:08;1.20;;;0.70;;
35917;SDS011;22011;59.912;30.300;2024-01-11T06:43:36;0.63;;;0.47;;
35917;SDS011;22011;59.912;30.300;2024-01-11T06:46:04;3.05;;;0.50;;
35917;SDS011;22011;59.912;30.300;2024-01-11T06:48:32;3.38;;;0.65;;
35917;SDS011;22011;59.912;30.300;2024-01-11T06:51:00;1.75;;;0.90;;
35917;SDS011;22011;59.912;30.300;2024-01-11T06:53:27;1.90;;;0.60;;
35917;SDS011;22011;59.912;30.300;2024-01-11T06:55:55;0.82;;;0.60;;
35917;SDS011;22011;59.912;30.300;2024-01-11T06:58:24;1.75;;;0.65;;
35917;SDS011;22011;59.912;30.300;2024-01-11T07:00:51;1.02;;;0.80;;
35917;SDS011;22011;59.912;30.300;2024-01-11T07:03:19;0.88;;;0.70;;
35917;SDS011;22011;59.912;30.300;2024-01-11T07:05:47;1.15;;;0.70;;
35917;SDS011;22011;59.912;30.300;2024-01-11T07:08:14;1.10;;;0.60;;
35917;SDS011;22011;59.912;30.300;2024-01-11T07:10:42;1.67;;;0.75;;
35917;SDS011;22011;59.912;30.300;2024-01-11T07:13:09;1.23;;;0.57;;
35917;SDS011;22011;59.912;30.300;2024-01-11T07:15:40;0.98;;;0.65;;
35917;SDS011;22011;59.912;30.300;2024-01-11T07:18:08;1.65;;;0.75;;
35917;SDS011;22011;59.912;30.300;2024-01-11T07:20:35;2.75;;;0.60;;
35917;SDS011;22011;59.912;30.300;2024-01-11T07:23:03;3.50;;;0.77;;
35917;SDS011;22011;59.912;30.300;2024-01-11T07:25:31;2.05;;;0.80;;
35917;SDS011;22011;59.912;30.300;2024-01-11T07:28:00;0.80;;;0.80;;
35917;SDS011;22011;59.912;30.300;2024-01-11T07:30:28;2.90;;;0.80;;
35917;SDS011;22011;59.912;30.300;2024-01-11T07:32:57;3.22;;;1.30;;
35917;SDS011;22011;59.912;30.300;2024-01-11T07:35:25;2.70;;;1.00;;
35917;SDS011;22011;59.912;30.300;2024-01-11T07:37:52;1.55;;;0.90;;
35917;SDS011;22011;59.912;30.300;2024-01-11T07:40:20;1.33;;;1.15;;
35917;SDS011;22011;59.912;30.300;2024-01-11T07:42:47;2.22;;;0.88;;
35917;SDS011;22011;59.912;30.300;2024-01-11T07:45:15;3.92;;;0.93;;
35917;SDS011;22011;59.912;30.300;2024-01-11T07:47:43;1.35;;;0.77;;
35917;SDS011;22011;59.912;30.300;2024-01-11T07:50:12;2.05;;;0.80;;
35917;SDS011;22011;59.912;30.300;2024-01-11T07:52:40;1.48;;;1.05;;
35917;SDS011;22011;59.912;30.300;2024-01-11T07:55:08;2.10;;;0.98;;
35917;SDS011;22011;59.912;30.300;2024-01-11T07:57:38;2.03;;;1.20;;
35917;SDS011;22011;59.912;30.300;2024-01-11T08:00:06;1.70;;;0.80;;
35917;SDS011;22011;59.912;30.300;2024-01-11T08:02:40;2.10;;;0.90;;
35917;SDS011;22011;59.912;30.300;2024-01-11T08:05:07;3.72;;;1.13;;
35917;SDS011;22011;59.912;30.300;2024-01-11T08:07:37;2.80;;;1.42;;
35917;SDS011;22011;59.912;30.300;2024-01-11T08:10:05;2.28;;;1.35;;
35917;SDS011;22011;59.912;30.300;2024-01-11T08:15:02;3.08;;;0.73;;
35917;SDS011;22011;59.912;30.300;2024-01-11T08:17:30;2.03;;;0.80;;
35917;SDS011;22011;59.912;30.300;2024-01-11T08:19:57;2.25;;;1.10;;
35917;SDS011;22011;59.912;30.300;2024-01-11T08:22:25;3.40;;;0.80;;
35917;SDS011;22011;59.912;30.300;2024-01-11T08:24:55;3.28;;;1.00;;
35917;SDS011;22011;59.912;30.300;2024-01-11T08:27:23;2.95;;;0.80;;
35917;SDS011;22011;59.912;30.300;2024-01-11T08:29:50;3.75;;;1.35;;
35917;SDS011;22011;59.912;30.300;2024-01-11T08:32:18;2.90;;;1.45;;
35917;SDS011;22011;59.912;30.300;2024-01-11T08:34:45;3.47;;;0.90;;
35917;SDS011;22011;59.912;30.300;2024-01-11T08:37:13;4.43;;;1.20;;
35917;SDS011;22011;59.912;30.300;2024-01-11T08:39:41;0.85;;;0.82;;
35917;SDS011;22011;59.912;30.300;2024-01-11T08:42:10;2.25;;;1.10;;
35917;SDS011;22011;59.912;30.300;2024-01-11T08:44:40;2.40;;;0.82;;
35917;SDS011;22011;59.912;30.300;2024-01-11T08:49:35;3.95;;;1.38;;
35917;SDS011;22011;59.912;30.300;2024-01-11T08:52:04;2.92;;;1.02;;
35917;SDS011;22011;59.912;30.300;2024-01-11T08:54:33;3.45;;;0.98;;
35917;SDS011;22011;59.912;30.300;2024-01-11T08:57:00;1.00;;;0.75;;
35917;SDS011;22011;59.912;30.300;2024-01-11T08:59:30;2.33;;;0.75;;
35917;SDS011;22011;59.912;30.300;2024-01-11T09:01:58;0.98;;;0.70;;
35917;SDS011;22011;59.912;30.300;2024-01-11T09:04:26;1.08;;;0.80;;
35917;SDS011;22011;59.912;30.300;2024-01-11T09:06:55;3.17;;;1.15;;
35917;SDS011;22011;59.912;30.300;2024-01-11T09:09:23;1.15;;;0.40;;
35917;SDS011;22011;59.912;30.300;2024-01-11T09:11:50;1.30;;;0.77;;
35917;SDS011;22011;59.912;30.300;2024-01-11T09:14:18;1.73;;;0.80;;
35917;SDS011;22011;59.912;30.300;2024-01-11T09:16:47;2.90;;;0.80;;
35917;SDS011;22011;59.912;30.300;2024-01-11T09:19:15;2.63;;;0.57;;
35917;SDS011;22011;59.912;30.300;2024-01-11T09:21:43;1.25;;;0.50;;
35917;SDS011;22011;59.912;30.300;2024-01-11T09:24:11;1.55;;;0.85;;
35917;SDS011;22011;59.912;30.300;2024-01-11T09:26:38;2.53;;;0.75;;
35917;SDS011;22011;59.912;30.300;2024-01-11T09:29:06;1.27;;;0.80;;
35917;SDS011;22011;59.912;30.300;2024-01-11T09:31:33;2.03;;;0.70;;
35917;SDS011;22011;59.912;30.300;2024-01-11T09:34:02;2.15;;;1.00;;
35917;SDS011;22011;59.912;30.300;2024-01-11T09:36:30;0.50;;;0.50;;
35917;SDS011;22011;59.912;30.300;2024-01-11T09:38:59;1.58;;;0.90;;
35917;SDS011;22011;59.912;30.300;2024-01-11T09:41:26;1.50;;;0.73;;
35917;SDS011;22011;59.912;30.300;2024-01-11T09:43:55;2.90;;;0.90;;
35917;SDS011;22011;59.912;30.300;2024-01-11T09:46:27;2.55;;;0.88;;
35917;SDS011;22011;59.912;30.300;2024-01-11T09:48:55;4.32;;;0.80;;
35917;SDS011;22011;59.912;30.300;2024-01-11T09:51:24;1.33;;;0.57;;
35917;SDS011;22011;59.912;30.300;2024-01-11T09:56:21;2.38;;;1.00;;
35917;SDS011;22011;59.912;30.300;2024-01-11T09:58:50;1.83;;;0.45;;
35917;SDS011;22011;59.912;30.300;2024-01-11T10:01:18;1.30;;;0.70;;
35917;SDS011;22011;59.912;30.300;2024-01-11T10:03:46;3.17;;;0.93;;
35917;SDS011;22011;59.912;30.300;2024-01-11T10:06:13;1.25;;;0.60;;
35917;SDS011;22011;59.912;30.300;2024-01-11T10:08:44;2.28;;;0.60;;
35917;SDS011;22011;59.912;30.300;2024-01-11T10:11:12;1.25;;;0.70;;
35917;SDS011;22011;59.912;30.300;2024-01-11T10:13:39;1.00;;;0.63;;
35917;SDS011;22011;59.912;30.300;2024-01-11T10:16:08;1.95;;;0.63;;
35917;SDS011;22011;59.912;30.300;2024-01-11T10:18:39;1.77;;;0.50;;
35917;SDS011;22011;59.912;30.300;2024-01-11T10:21:06;3.88;;;0.90;;
35917;SDS011;22011;59.912;30.300;2024-01-11T10:23:35;3.15;;;0.73;;
35917;SDS011;22011;59.912;30.300;2024-01-11T10:26:06;1.85;;;0.68;;
35917;SDS011;22011;59.912;30.300;2024-01-11T10:28:34;1.42;;;0.55;;
35917;SDS011;22011;59.912;30.300;2024-01-11T10:31:03;2.00;;;1.05;;
35917;SDS011;22011;59.912;30.300;2024-01-11T10:33:33;2.40;;;0.43;;
35917;SDS011;22011;59.912;30.300;2024-01-11T10:36:01;2.03;;;0.80;;
35917;SDS011;22011;59.912;30.300;2024-01-11T10:38:30;3.03;;;0.80;;
35917;SDS011;22011;59.912;30.300;2024-01-11T10:43:29;0.45;;;0.40;;
35917;SDS011;22011;59.912;30.300;2024-01-11T10:45:59;1.70;;;0.70;;
35917;SDS011;22011;59.912;30.300;2024-01-11T10:48:30;0.55;;;0.32;;
35917;SDS011;22011;59.912;30.300;2024-01-11T10:50:59;5.45;;;0.90;;
35917;SDS011;22011;59.912;30.300;2024-01-11T10:53:30;1.23;;;0.82;;
35917;SDS011;22011;59.912;30.300;2024-01-11T10:56:05;3.05;;;0.90;;
35917;SDS011;22011;59.912;30.300;2024-01-11T10:58:35;1.35;;;0.68;;
35917;SDS011;22011;59.912;30.300;2024-01-11T11:01:03;1.37;;;0.70;;
35917;SDS011;22011;59.912;30.300;2024-01-11T11:06:01;2.08;;;0.80;;
35917;SDS011;22011;59.912;30.300;2024-01-11T11:08:29;1.25;;;0.90;;
35917;SDS011;22011;59.912;30.300;2024-01-11T11:10:59;1.35;;;0.90;;
35917;SDS011;22011;59.912;30.300;2024-01-11T11:13:31;2.03;;;1.00;;
35917;SDS011;22011;59.912;30.300;2024-01-11T11:16:02;1.58;;;1.20;;
35917;SDS011;22011;59.912;30.300;2024-01-11T11:18:30;2.03;;;0.98;;
35917;SDS011;22011;59.912;30.300;2024-01-11T11:21:00;1.73;;;0.90;;
35917;SDS011;22011;59.912;30.300;2024-01-11T11:23:28;1.73;;;1.13;;
35917;SDS011;22011;59.912;30.300;2024-01-11T11:25:56;4.63;;;1.13;;
35917;SDS011;22011;59.912;30.300;2024-01-11T11:28:24;2.08;;;0.75;;
35917;SDS011;22011;59.912;30.300;2024-01-11T11:30:53;1.75;;;1.38;;
35917;SDS011;22011;59.912;30.300;2024-01-11T11:33:25;2.38;;;1.00;;
35917;SDS011;22011;59.912;30.300;2024-01-11T11:35:54;3.33;;;0.80;;
35917;SDS011;22011;59.912;30.300;2024-01-11T11:38:25;1.60;;;0.57;;
35917;SDS011;22011;59.912;30.300;2024-01-11T11:43:23;2.72;;;1.35;;
35917;SDS011;22011;59.912;30.300;2024-01-11T11:45:51;3.47;;;0.98;;
35917;SDS011;22011;59.912;30.300;2024-01-11T11:51:18;2.20;;;1.02;;
35917;SDS011;22011;59.912;30.300;2024-01-11T11:53:47;2.85;;;1.20;;
35917;SDS011;22011;59.912;30.300;2024-01-11T11:56:16;3.78;;;1.05;;
35917;SDS011;22011;59.912;30.300;2024-01-11T11:58:45;3.75;;;1.08;;
35917;SDS011;22011;59.912;30.300;2024-01-11T12:01:13;1.85;;;0.75;;
35917;SDS011;22011;59.912;30.300;2024-01-11T12:03:43;1.52;;;1.10;;
35917;SDS011;22011;59.912;30.300;2024-01-11T12:06:16;2.20;;;1.00;;
35917;SDS011;22011;59.912;30.300;2024-01-11T12:08:45;4.75;;;1.08;;
35917;SDS011;22011;59.912;30.300;2024-01-11T12:11:14;2.13;;;0.90;;
35917;SDS011;22011;59.912;30.300;2024-01-11T12:13:42;1.42;;;0.70;;
35917;SDS011;22011;59.912;30.300;2024-01-11T12:16:10;2.80;;;1.13;;
35917;SDS011;22011;59.912;30.300;2024-01-11T12:18:39;4.15;;;1.13;;
35917;SDS011;22011;59.912;30.300;2024-01-11T12:21:07;2.60;;;0.93;;
35917;SDS011;22011;59.912;30.300;2024-01-11T12:23:36;3.75;;;1.00;;
35917;SDS011;22011;59.912;30.300;2024-01-11T12:26:06;6.40;;;1.98;;
35917;SDS011;22011;59.912;30.300;2024-01-11T12:28:39;2.42;;;0.82;;
35917;SDS011;22011;59.912;30.300;2024-01-11T12:31:09;2.25;;;1.40;;
35917;SDS011;22011;59.912;30.300;2024-01-11T12:33:38;2.72;;;1.20;;
35917;SDS011;22011;59.912;30.300;2024-01-11T12:36:06;1.77;;;0.88;;
35917;SDS011;22011;59.912;30.300;2024-01-11T12:38:38;2.88;;;1.40;;
35917;SDS011;22011;59.912;30.300;2024-01-11T12:41:14;5.95;;;1.42;;
35917;SDS011;22011;59.912;30.300;2024-01-11T12:43:43;2.78;;;1.10;;
35917;SDS011;22011;59.912;30.300;2024-01-11T12:46:11;3.55;;;1.13;;
35917;SDS011;22011;59.912;30.300;2024-01-11T12:48:39;3.45;;;1.02;;
35917;SDS011;22011;59.912;30.300;2024-01-11T12:51:08;2.30;;;1.02;;
35917;SDS011;22011;59.912;30.300;2024-01-11T12:53:36;2.60;;;1.15;;
35917;SDS011;22011;59.912;30.300;2024-01-11T12:56:06;3.78;;;1.13;;
35917;SDS011;22011;59.912;30.300;2024-01-11T12:58:36;3.65;;;1.70;;
35917;SDS011;22011;59.912;30.300;2024-01-11T13:01:04;2.60;;;1.15;;
35917;SDS011;22011;59.912;30.300;2024-01-11T13:03:34;3.40;;;1.50;;
35917;SDS011;22011;59.912;30.300;2024-01-11T13:06:02;3.22;;;1.00;;
35917;SDS011;22011;59.912;30.300;2024-01-11T13:08:30;3.72;;;1.25;;
35917;SDS011;22011;59.912;30.300;2024-01-11T13:11:00;2.80;;;1.08;;
35917;SDS011;22011;59.912;30.300;2024-01-11T13:13:34;3.97;;;1.00;;
35917;SDS011;22011;59.912;30.300;2024-01-11T13:16:05;1.20;;;0.93;;
35917;SDS011;22011;59.912;30.300;2024-01-11T13:18:36;2.03;;;1.10;;
35917;SDS011;22011;59.912;30.300;2024-01-11T13:21:04;3.67;;;1.20;;
35917;SDS011;22011;59.912;30.300;2024-01-11T13:23:32;2.53;;;0.90;;
35917;SDS011;22011;59.912;30.300;2024-01-11T13:26:00;4.50;;;1.38;;
35917;SDS011;22011;59.912;30.300;2024-01-11T13:28:28;1.77;;;0.93;;
35917;SDS011;22011;59.912;30.300;2024-01-11T13:30:57;1.80;;;1.00;;
35917;SDS011;22011;59.912;30.300;2024-01-11T13:33:25;1.95;;;0.95;;
35917;SDS011;22011;59.912;30.300;2024-01-11T13:35:53;3.20;;;1.10;;
35917;SDS011;22011;59.912;30.300;2024-01-11T13:38:21;3.50;;;1.20;;
35917;SDS011;22011;59.912;30.300;2024-01-11T13:40:49;4.78;;;1.05;;
35917;SDS011;22011;59.912;30.300;2024-01-11T13:43:17;2.50;;;0.77;;
35917;SDS011;22011;59.912;30.300;2024-01-11T13:45:44;1.77;;;1.00;;
35917;SDS011;22011;59.912;30.300;2024-01-11T13:48:13;2.40;;;1.00;;
35917;SDS011;22011;59.912;30.300;2024-01-11T13:50:41;2.35;;;0.82;;
35917;SDS011;22011;59.912;30.300;2024-01-11T13:53:08;0.90;;;0.57;;
35917;SDS011;22011;59.912;30.300;2024-01-11T13:55:36;5.03;;;1.88;;
35917;SDS011;22011;59.912;30.300;2024-01-11T13:58:04;3.15;;;1.10;;
35917;SDS011;22011;59.912;30.300;2024-01-11T14:00:32;1.95;;;0.82;;
35917;SDS011;22011;59.912;30.300;2024-01-11T14:02:59;7.93;;;1.42;;
35917;SDS011;22011;59.912;30.300;2024-01-11T14:05:28;4.22;;;1.27;;
35917;SDS011;22011;59.912;30.300;2024-01-11T14:07:56;2.55;;;1.40;;
35917;SDS011;22011;59.912;30.300;2024-01-11T14:10:25;2.65;;;1.30;;
35917;SDS011;22011;59.912;30.300;2024-01-11T14:12:52;4.20;;;1.20;;
35917;SDS011;22011;59.912;30.300;2024-01-11T14:15:20;3.22;;;1.10;;
35917;SDS011;22011;59.912;30.300;2024-01-11T14:17:48;2.45;;;1.38;;
35917;SDS011;22011;59.912;30.300;2024-01-11T14:20:15;2.83;;;1.35;;
35917;SDS011;22011;59.912;30.300;2024-01-11T14:22:45;2.88;;;1.08;;
35917;SDS011;22011;59.912;30.300;2024-01-11T14:25:15;3.65;;;1.40;;
35917;SDS011;22011;59.912;30.300;2024-01-11T14:27:43;5.32;;;1.23;;
35917;SDS011;22011;59.912;30.300;2024-01-11T14:30:11;4.10;;;1.52;;
35917;SDS011;22011;59.912;30.300;2024-01-11T14:32:40;2.90;;;2.03;;
35917;SDS011;22011;59.912;30.300;2024-01-11T14:35:08;2.90;;;1.42;;
35917;SDS011;22011;59.912;30.300;2024-01-11T14:37:37;3.90;;;1.85;;
35917;SDS011;22011;59.912;30.300;2024-01-11T14:40:08;3.72;;;1.17;;
35917;SDS011;22011;59.912;30.300;2024-01-11T14:42:37;3.35;;;1.08;;
35917;SDS011;22011;59.912;30.300;2024-01-11T14:45:05;1.85;;;1.17;;
35917;SDS011;22011;59.912;30.300;2024-01-11T14:47:33;2.78;;;1.13;;
35917;SDS011;22011;59.912;30.300;2024-01-11T14:50:01;1.42;;;0.77;;
35917;SDS011;22011;59.912;30.300;2024-01-11T14:52:30;5.47;;;1.10;;
35917;SDS011;22011;59.912;30.300;2024-01-11T14:54:58;3.85;;;0.95;;
35917;SDS011;22011;59.912;30.300;2024-01-11T14:57:27;3.95;;;1.60;;
35917;SDS011;22011;59.912;30.300;2024-01-11T14:59:54;3.80;;;1.20;;
35917;SDS011;22011;59.912;30.300;2024-01-11T15:02:22;2.63;;;1.48;;